sensor_id;sensor_type;location;lat;lon;timestamp;P1;durP1;ratioP1;P2;durP2;ratioP2
76631;SDS011;65526;48.578;-4.520;2023-07-31T00:00:55;24.83;;;4.97;;
76631;SDS011;65526;48.578;-4.520;2023-07-31T00:03:21;15.30;;;4.25;;
76631;SDS011;65526;48.578;-4.520;2023-07-31T00:05:48;16.50;;;4.60;;
76631;SDS011;65526;48.578;-4.520;2023-07-31T00:08:14;20.92;;;4.80;;
76631;SDS011;65526;48.578;-4.520;2023-07-31T00:10:41;19.88;;;4.70;;
76631;SDS011;65526;48.578;-4.520;2023-07-31T00:13:07;22.27;;;4.57;;
76631;SDS011;65526;48.578;-4.520;2023-07-31T00:15:33;25.13;;;4.30;;
76631;SDS011;65526;48.578;-4.520;2023-07-31T00:18:00;16.35;;;4.20;;
76631;SDS011;65526;48.578;-4.520;2023-07-31T00:20:27;16.40;;;4.35;;
76631;SDS011;65526;48.578;-4.520;2023-07-31T00:22:54;21.75;;;4.40;;
76631;SDS011;65526;48.578;-4.520;2023-07-31T00:25:20;20.63;;;4.00;;
76631;SDS011;65526;48.578;-4.520;2023-07-31T00:27:46;22.85;;;4.68;;
76631;SDS011;65526;48.578;-4.520;2023-07-31T00:30:13;18.10;;;3.58;;
76631;SDS011;65526;48.578;-4.520;2023-07-31T00:32:39;18.73;;;4.03;;
76631;SDS011;65526;48.578;-4.520;2023-07-31T00:35:06;16.75;;;4.25;;
76631;SDS011;65526;48.578;-4.520;2023-07-31T00:37:32;17.25;;;4.85;;
76631;SDS011;65526;48.578;-4.520;2023-07-31T00:39:59;20.15;;;4.47;;
76631;SDS011;65526;48.578;-4.520;2023-07-31T00:42:25;20.92;;;4.13;;
76631;SDS011;65526;48.578;-4.520;2023-07-31T00:44:52;17.27;;;4.68;;
76631;SDS011;65526;48.578;-4.520;2023-07-31T00:47:18;26.58;;;4.43;;
76631;SDS011;65526;48.578;-4.520;2023-07-31T00:49:44;15.82;;;4.55;;
76631;SDS011;65526;48.578;-4.520;2023-07-31T00:52:11;15.75;;;4.20;;
76631;SDS011;65526;48.578;-4.520;2023-07-31T00:54:38;16.98;;;4.07;;
76631;SDS011;65526;48.578;-4.520;2023-07-31T00:57:05;15.68;;;4.82;;
76631;SDS011;65526;48.578;-4.520;2023-07-31T00:59:34;20.38;;;4.00;;
76631;SDS011;65526;48.578;-4.520;2023-07-31T01:02:00;19.77;;;4.63;;
76631;SDS011;65526;48.578;-4.520;2023-07-31T01:04:27;20.88;;;4.50;;
76631;SDS011;65526;48.578;-4.520;2023-07-31T01:12:29;21.80;;;3.78;;
76631;SDS011;65526;48.578;-4.520;2023-07-31T01:17:26;18.35;;;4.40;;
76631;SDS011;65526;48.578;-4.520;2023-07-31T01:19:54;15.15;;;4.40;;
76631;SDS011;65526;48.578;-4.520;2023-07-31T01:28:44;15.20;;;4.20;;
76631;SDS011;65526;48.578;-4.520;2023-07-31T01:31:26;15.85;;;4.43;;
76631;SDS011;65526;48.578;-4.520;2023-07-31T01:33:58;23.17;;;4.47;;
76631;SDS011;65526;48.578;-4.520;2023-07-31T01:36:27;19.58;;;4.85;;
76631;SDS011;65526;48.578;-4.520;2023-07-31T01:38:58;15.82;;;3.95;;
76631;SDS011;65526;48.578;-4.520;2023-07-31T01:41:27;12.52;;;3.58;;
76631;SDS011;65526;48.578;-4.520;2023-07-31T01:43:54;20.60;;;4.55;;
76631;SDS011;65526;48.578;-4.520;2023-07-31T01:46:20;18.33;;;3.80;;
76631;SDS011;65526;48.578;-4.520;2023-07-31T01:48:47;15.05;;;3.92;;
76631;SDS011;65526;48.578;-4.520;2023-07-31T01:51:13;16.92;;;4.72;;
76631;SDS011;65526;48.578;-4.520;2023-07-31T01:53:39;16.98;;;4.32;;
76631;SDS011;65526;48.578;-4.520;2023-07-31T01:56:07;17.45;;;4.70;;
76631;SDS011;65526;48.578;-4.520;2023-07-31T01:58:34;14.80;;;4.18;;
76631;SDS011;65526;48.578;-4.520;2023-07-31T02:01:00;17.60;;;4.45;;
76631;SDS011;65526;48.578;-4.520;2023-07-31T02:03:27;22.33;;;5.25;;
76631;SDS011;65526;48.578;-4.520;2023-07-31T02:05:53;18.45;;;4.57;;
76631;SDS011;65526;48.578;-4.520;2023-07-31T02:08:20;12.05;;;4.00;;
76631;SDS011;65526;48.578;-4.520;2023-07-31T02:10:46;16.20;;;4.47;;
76631;SDS011;65526;48.578;-4.520;2023-07-31T02:13:13;13.13;;;3.25;;
76631;SDS011;65526;48.578;-4.520;2023-07-31T02:15:39;17.60;;;4.10;;
76631;SDS011;65526;48.578;-4.520;2023-07-31T02:18:06;9.48;;;3.45;;
76631;SDS011;65526;48.578;-4.520;2023-07-31T02:20:35;12.30;;;3.05;;
76631;SDS011;65526;48.578;-4.520;2023-07-31T02:23:02;12.18;;;3.20;;
76631;SDS011;65526;48.578;-4.520;2023-07-31T02:25:28;15.63;;;3.45;;
76631;SDS011;65526;48.578;-4.520;2023-07-31T02:27:55;12.50;;;3.78;;
76631;SDS011;65526;48.578;-4.520;2023-07-31T02:30:21;11.45;;;3.55;;
76631;SDS011;65526;48.578;-4.520;2023-07-31T02:32:48;10.95;;;3.58;;
76631;SDS011;65526;48.578;-4.520;2023-07-31T02:35:15;11.25;;;3.55;;
76631;SDS011;65526;48.578;-4.520;2023-07-31T02:37:42;12.85;;;3.80;;
76631;SDS011;65526;48.578;-4.520;2023-07-31T02:40:08;10.30;;;3.88;;
76631;SDS011;65526;48.578;-4.520;2023-07-31T02:42:35;11.23;;;3.50;;
76631;SDS011;65526;48.578;-4.520;2023-07-31T02:45:02;9.70;;;3.17;;
76631;SDS011;65526;48.578;-4.520;2023-07-31T02:47:28;11.20;;;3.42;;
76631;SDS011;65526;48.578;-4.520;2023-07-31T02:49:55;8.55;;;2.67;;
76631;SDS011;65526;48.578;-4.520;2023-07-31T02:52:22;9.15;;;2.75;;
76631;SDS011;65526;48.578;-4.520;2023-07-31T02:54:48;10.38;;;2.97;;
76631;SDS011;65526;48.578;-4.520;2023-07-31T02:57:14;7.65;;;2.63;;
76631;SDS011;65526;48.578;-4.520;2023-07-31T02:59:42;8.45;;;2.33;;
76631;SDS011;65526;48.578;-4.520;2023-07-31T03:02:08;5.85;;;2.47;;
76631;SDS011;65526;48.578;-4.520;2023-07-31T03:04:35;8.02;;;2.75;;
76631;SDS011;65526;48.578;-4.520;2023-07-31T03:07:01;8.50;;;2.10;;
76631;SDS011;65526;48.578;-4.520;2023-07-31T03:09:28;10.00;;;2.83;;
76631;SDS011;65526;48.578;-4.520;2023-07-31T03:11:54;9.07;;;2.92;;
76631;SDS011;65526;48.578;-4.520;2023-07-31T03:14:21;11.07;;;3.55;;
76631;SDS011;65526;48.578;-4.520;2023-07-31T03:16:47;17.52;;;4.25;;
76631;SDS011;65526;48.578;-4.520;2023-07-31T03:19:14;17.55;;;4.53;;
76631;SDS011;65526;48.578;-4.520;2023-07-31T03:21:40;14.70;;;3.40;;
76631;SDS011;65526;48.578;-4.520;2023-07-31T03:24:07;8.80;;;3.08;;
76631;SDS011;65526;48.578;-4.520;2023-07-31T03:26:33;7.10;;;2.72;;
76631;SDS011;65526;48.578;-4.520;2023-07-31T03:29:01;10.35;;;3.25;;
76631;SDS011;65526;48.578;-4.520;2023-07-31T03:31:28;9.02;;;2.70;;
76631;SDS011;65526;48.578;-4.520;2023-07-31T03:33:55;11.95;;;3.53;;
76631;SDS011;65526;48.578;-4.520;2023-07-31T03:36:22;12.88;;;4.10;;
76631;SDS011;65526;48.578;-4.520;2023-07-31T03:38:48;10.88;;;3.80;;
76631;SDS011;65526;48.578;-4.520;2023-07-31T03:41:15;13.60;;;4.28;;
76631;SDS011;65526;48.578;-4.520;2023-07-31T03:43:45;13.77;;;4.18;;
76631;SDS011;65526;48.578;-4.520;2023-07-31T03:46:15;20.52;;;4.97;;
76631;SDS011;65526;48.578;-4.520;2023-07-31T03:48:42;14.85;;;4.60;;
76631;SDS011;65526;48.578;-4.520;2023-07-31T03:51:08;15.02;;;4.38;;
76631;SDS011;65526;48.578;-4.520;2023-07-31T03:53:35;15.73;;;5.25;;
76631;SDS011;65526;48.578;-4.520;2023-07-31T03:56:01;22.27;;;5.18;;
76631;SDS011;65526;48.578;-4.520;2023-07-31T03:58:27;24.15;;;6.03;;
76631;SDS011;65526;48.578;-4.520;2023-07-31T04:00:54;21.23;;;5.88;;
76631;SDS011;65526;48.578;-4.520;2023-07-31T04:03:20;18.20;;;5.43;;
76631;SDS011;65526;48.578;-4.520;2023-07-31T04:05:47;23.95;;;5.82;;
76631;SDS011;65526;48.578;-4.520;2023-07-31T04:08:13;25.55;;;6.60;;
76631;SDS011;65526;48.578;-4.520;2023-07-31T04:10:40;22.73;;;6.55;;
76631;SDS011;65526;48.578;-4.520;2023-07-31T04:13:06;27.00;;;5.80;;
76631;SDS011;65526;48.578;-4.520;2023-07-31T04:15:33;30.13;;;7.07;;
76631;SDS011;65526;48.578;-4.520;2023-07-31T04:17:59;23.55;;;6.68;;
76631;SDS011;65526;48.578;-4.520;2023-07-31T04:20:25;22.83;;;6.07;;
76631;SDS011;65526;48.578;-4.520;2023-07-31T04:22:52;22.48;;;5.82;;
76631;SDS011;65526;48.578;-4.520;2023-07-31T04:25:18;27.90;;;6.30;;
76631;SDS011;65526;48.578;-4.520;2023-07-31T04:27:45;23.50;;;6.03;;
76631;SDS011;65526;48.578;-4.520;2023-07-31T04:30:11;22.52;;;5.68;;
76631;SDS011;65526;48.578;-4.520;2023-07-31T04:32:37;20.33;;;6.03;;
76631;SDS011;65526;48.578;-4.520;2023-07-31T04:35:04;22.25;;;6.18;;
76631;SDS011;65526;48.578;-4.520;2023-07-31T04:37:31;20.88;;;5.32;;
76631;SDS011;65526;48.578;-4.520;2023-07-31T04:39:57;26.08;;;5.88;;
76631;SDS011;65526;48.578;-4.520;2023-07-31T04:42:24;22.70;;;5.82;;
76631;SDS011;65526;48.578;-4.520;2023-07-31T04:44:50;26.48;;;6.10;;
76631;SDS011;65526;48.578;-4.520;2023-07-31T04:47:19;27.42;;;5.95;;
76631;SDS011;65526;48.578;-4.520;2023-07-31T04:49:45;22.70;;;5.80;;
76631;SDS011;65526;48.578;-4.520;2023-07-31T04:52:12;23.95;;;5.97;;
76631;SDS011;65526;48.578;-4.520;2023-07-31T04:54:38;25.85;;;5.53;;
76631;SDS011;65526;48.578;-4.520;2023-07-31T04:57:05;23.35;;;5.90;;
76631;SDS011;65526;48.578;-4.520;2023-07-31T04:59:31;30.65;;;6.47;;
76631;SDS011;65526;48.578;-4.520;2023-07-31T05:01:58;27.38;;;5.70;;
76631;SDS011;65526;48.578;-4.520;2023-07-31T05:04:24;23.40;;;5.70;;
76631;SDS011;65526;48.578;-4.520;2023-07-31T05:06:51;31.17;;;6.97;;
76631;SDS011;65526;48.578;-4.520;2023-07-31T05:09:17;23.30;;;5.68;;
76631;SDS011;65526;48.578;-4.520;2023-07-31T05:11:44;26.55;;;6.13;;
76631;SDS011;65526;48.578;-4.520;2023-07-31T05:14:10;25.73;;;5.57;;
76631;SDS011;65526;48.578;-4.520;2023-07-31T05:16:37;26.27;;;6.18;;
76631;SDS011;65526;48.578;-4.520;2023-07-31T05:19:03;25.92;;;5.65;;
76631;SDS011;65526;48.578;-4.520;2023-07-31T05:21:30;22.80;;;6.00;;
76631;SDS011;65526;48.578;-4.520;2023-07-31T05:23:56;20.67;;;5.40;;
76631;SDS011;65526;48.578;-4.520;2023-07-31T05:26:22;20.70;;;5.82;;
76631;SDS011;65526;48.578;-4.520;2023-07-31T05:28:49;24.77;;;6.03;;
76631;SDS011;65526;48.578;-4.520;2023-07-31T05:31:15;22.55;;;4.85;;
76631;SDS011;65526;48.578;-4.520;2023-07-31T05:33:42;19.17;;;4.40;;
76631;SDS011;65526;48.578;-4.520;2023-07-31T05:36:08;23.48;;;5.95;;
76631;SDS011;65526;48.578;-4.520;2023-07-31T05:38:35;23.20;;;5.82;;
76631;SDS011;65526;48.578;-4.520;2023-07-31T05:41:02;24.48;;;5.38;;
76631;SDS011;65526;48.578;-4.520;2023-07-31T05:43:28;28.33;;;5.40;;
76631;SDS011;65526;48.578;-4.520;2023-07-31T05:45:54;23.17;;;5.40;;
76631;SDS011;65526;48.578;-4.520;2023-07-31T05:48:21;28.40;;;6.25;;
76631;SDS011;65526;48.578;-4.520;2023-07-31T05:50:47;26.08;;;6.28;;
76631;SDS011;65526;48.578;-4.520;2023-07-31T05:53:14;32.22;;;6.65;;
76631;SDS011;65526;48.578;-4.520;2023-07-31T05:55:40;21.60;;;5.75;;
76631;SDS011;65526;48.578;-4.520;2023-07-31T05:58:07;18.63;;;4.88;;
76631;SDS011;65526;48.578;-4.520;2023-07-31T06:00:33;33.45;;;6.50;;
76631;SDS011;65526;48.578;-4.520;2023-07-31T06:02:59;31.65;;;6.80;;
76631;SDS011;65526;48.578;-4.520;2023-07-31T06:05:26;19.92;;;5.28;;
76631;SDS011;65526;48.578;-4.520;2023-07-31T06:07:54;24.15;;;5.25;;
76631;SDS011;65526;48.578;-4.520;2023-07-31T06:10:21;19.17;;;5.65;;
76631;SDS011;65526;48.578;-4.520;2023-07-31T06:12:48;18.80;;;5.25;;
76631;SDS011;65526;48.578;-4.520;2023-07-31T06:15:14;20.50;;;5.85;;
76631;SDS011;65526;48.578;-4.520;2023-07-31T06:17:41;19.55;;;5.60;;
76631;SDS011;65526;48.578;-4.520;2023-07-31T06:20:08;18.08;;;5.07;;
76631;SDS011;65526;48.578;-4.520;2023-07-31T06:22:35;15.88;;;5.30;;
76631;SDS011;65526;48.578;-4.520;2023-07-31T06:25:02;15.52;;;4.30;;
76631;SDS011;65526;48.578;-4.520;2023-07-31T06:27:29;15.20;;;4.22;;
76631;SDS011;65526;48.578;-4.520;2023-07-31T06:29:55;17.20;;;4.68;;
76631;SDS011;65526;48.578;-4.520;2023-07-31T06:32:22;11.05;;;4.30;;
76631;SDS011;65526;48.578;-4.520;2023-07-31T06:34:48;14.10;;;4.13;;
76631;SDS011;65526;48.578;-4.520;2023-07-31T06:37:15;12.93;;;4.20;;
76631;SDS011;65526;48.578;-4.520;2023-07-31T06:39:42;19.30;;;3.72;;
76631;SDS011;65526;48.578;-4.520;2023-07-31T06:42:09;13.20;;;3.63;;
76631;SDS011;65526;48.578;-4.520;2023-07-31T06:44:35;11.15;;;3.50;;
76631;SDS011;65526;48.578;-4.520;2023-07-31T06:47:01;14.27;;;3.45;;
76631;SDS011;65526;48.578;-4.520;2023-07-31T06:49:28;13.07;;;3.30;;
76631;SDS011;65526;48.578;-4.520;2023-07-31T06:51:55;11.93;;;3.35;;
76631;SDS011;65526;48.578;-4.520;2023-07-31T06:54:22;10.10;;;3.03;;
76631;SDS011;65526;48.578;-4.520;2023-07-31T06:56:53;12.68;;;3.58;;
76631;SDS011;65526;48.578;-4.520;2023-07-31T06:59:19;12.85;;;3.65;;
76631;SDS011;65526;48.578;-4.520;2023-07-31T07:01:46;10.70;;;3.20;;
76631;SDS011;65526;48.578;-4.520;2023-07-31T07:04:14;9.15;;;2.88;;
76631;SDS011;65526;48.578;-4.520;2023-07-31T07:06:42;12.00;;;2.90;;
76631;SDS011;65526;48.578;-4.520;2023-07-31T07:09:09;9.75;;;3.33;;
76631;SDS011;65526;48.578;-4.520;2023-07-31T07:11:35;10.00;;;2.80;;
76631;SDS011;65526;48.578;-4.520;2023-07-31T07:14:03;10.80;;;2.95;;
76631;SDS011;65526;48.578;-4.520;2023-07-31T07:16:29;7.05;;;2.88;;
76631;SDS011;65526;48.578;-4.520;2023-07-31T07:18:56;15.48;;;3.17;;
76631;SDS011;65526;48.578;-4.520;2023-07-31T07:21:23;14.25;;;2.70;;
76631;SDS011;65526;48.578;-4.520;2023-07-31T07:23:50;8.43;;;2.75;;
76631;SDS011;65526;48.578;-4.520;2023-07-31T07:26:16;13.02;;;3.35;;
76631;SDS011;65526;48.578;-4.520;2023-07-31T07:28:42;10.15;;;2.88;;
76631;SDS011;65526;48.578;-4.520;2023-07-31T07:31:09;8.88;;;3.33;;
76631;SDS011;65526;48.578;-4.520;2023-07-31T07:33:36;9.93;;;2.83;;
76631;SDS011;65526;48.578;-4.520;2023-07-31T07:36:02;5.70;;;2.22;;
76631;SDS011;65526;48.578;-4.520;2023-07-31T07:38:29;8.88;;;2.50;;
76631;SDS011;65526;48.578;-4.520;2023-07-31T07:40:55;8.55;;;2.03;;
76631;SDS011;65526;48.578;-4.520;2023-07-31T07:43:22;6.35;;;2.03;;
76631;SDS011;65526;48.578;-4.520;2023-07-31T07:45:49;8.82;;;1.92;;
76631;SDS011;65526;48.578;-4.520;2023-07-31T07:48:15;6.55;;;2.60;;
76631;SDS011;65526;48.578;-4.520;2023-07-31T07:50:43;9.73;;;2.88;;
76631;SDS011;65526;48.578;-4.520;2023-07-31T07:53:09;8.68;;;2.65;;
76631;SDS011;65526;48.578;-4.520;2023-07-31T07:55:36;6.85;;;2.50;;
76631;SDS011;65526;48.578;-4.520;2023-07-31T07:58:02;7.60;;;2.53;;
76631;SDS011;65526;48.578;-4.520;2023-07-31T08:00:28;6.72;;;2.42;;
76631;SDS011;65526;48.578;-4.520;2023-07-31T08:02:55;12.82;;;3.33;;
76631;SDS011;65526;48.578;-4.520;2023-07-31T08:07:50;8.82;;;2.42;;
76631;SDS011;65526;48.578;-4.520;2023-07-31T08:10:17;10.68;;;2.92;;
76631;SDS011;65526;48.578;-4.520;2023-07-31T08:12:44;6.60;;;2.78;;
76631;SDS011;65526;48.578;-4.520;2023-07-31T08:15:10;9.38;;;2.50;;
76631;SDS011;65526;48.578;-4.520;2023-07-31T08:17:37;12.13;;;3.75;;
76631;SDS011;65526;48.578;-4.520;2023-07-31T08:20:04;11.27;;;3.17;;
76631;SDS011;65526;48.578;-4.520;2023-07-31T08:22:31;10.05;;;3.33;;
76631;SDS011;65526;48.578;-4.520;2023-07-31T08:24:58;8.63;;;3.20;;
76631;SDS011;65526;48.578;-4.520;2023-07-31T08:27:24;8.18;;;3.13;;
76631;SDS011;65526;48.578;-4.520;2023-07-31T08:29:51;9.68;;;3.65;;
76631;SDS011;65526;48.578;-4.520;2023-07-31T08:32:18;15.77;;;4.13;;
76631;SDS011;65526;48.578;-4.520;2023-07-31T08:34:45;13.02;;;4.50;;
76631;SDS011;65526;48.578;-4.520;2023-07-31T08:37:11;14.10;;;4.13;;
76631;SDS011;65526;48.578;-4.520;2023-07-31T08:39:37;16.05;;;4.07;;
76631;SDS011;65526;48.578;-4.520;2023-07-31T08:42:07;15.30;;;4.43;;
76631;SDS011;65526;48.578;-4.520;2023-07-31T08:44:35;17.67;;;4.22;;
76631;SDS011;65526;48.578;-4.520;2023-07-31T08:47:03;15.27;;;3.70;;
76631;SDS011;65526;48.578;-4.520;2023-07-31T08:49:30;12.20;;;3.35;;
76631;SDS011;65526;48.578;-4.520;2023-07-31T08:51:57;7.70;;;2.67;;
76631;SDS011;65526;48.578;-4.520;2023-07-31T08:54:24;7.75;;;3.05;;
76631;SDS011;65526;48.578;-4.520;2023-07-31T08:56:50;8.75;;;2.22;;
76631;SDS011;65526;48.578;-4.520;2023-07-31T08:59:19;5.07;;;2.42;;
76631;SDS011;65526;48.578;-4.520;2023-07-31T09:01:50;6.65;;;2.33;;
76631;SDS011;65526;48.578;-4.520;2023-07-31T09:04:20;7.22;;;2.30;;
76631;SDS011;65526;48.578;-4.520;2023-07-31T09:06:47;9.48;;;2.83;;
76631;SDS011;65526;48.578;-4.520;2023-07-31T09:09:15;8.32;;;2.35;;
76631;SDS011;65526;48.578;-4.520;2023-07-31T09:11:42;7.32;;;2.08;;
76631;SDS011;65526;48.578;-4.520;2023-07-31T09:14:08;7.60;;;1.92;;
76631;SDS011;65526;48.578;-4.520;2023-07-31T09:16:36;3.78;;;1.75;;
76631;SDS011;65526;48.578;-4.520;2023-07-31T09:19:40;7.30;;;2.17;;
76631;SDS011;65526;48.578;-4.520;2023-07-31T09:22:06;9.20;;;2.65;;
76631;SDS011;65526;48.578;-4.520;2023-07-31T09:24:33;11.00;;;3.15;;
76631;SDS011;65526;48.578;-4.520;2023-07-31T09:27:00;11.02;;;4.00;;
76631;SDS011;65526;48.578;-4.520;2023-07-31T09:29:28;16.45;;;4.22;;
76631;SDS011;65526;48.578;-4.520;2023-07-31T09:31:55;15.52;;;4.25;;
76631;SDS011;65526;48.578;-4.520;2023-07-31T09:34:36;14.38;;;5.18;;
76631;SDS011;65526;48.578;-4.520;2023-07-31T09:37:07;18.83;;;5.90;;
76631;SDS011;65526;48.578;-4.520;2023-07-31T09:39:44;13.85;;;5.10;;
76631;SDS011;65526;48.578;-4.520;2023-07-31T09:42:12;10.95;;;4.68;;
76631;SDS011;65526;48.578;-4.520;2023-07-31T09:44:39;13.27;;;4.68;;
76631;SDS011;65526;48.578;-4.520;2023-07-31T09:47:07;13.73;;;3.90;;
76631;SDS011;65526;48.578;-4.520;2023-07-31T09:49:49;10.43;;;3.70;;
76631;SDS011;65526;48.578;-4.520;2023-07-31T09:52:15;11.90;;;4.35;;
76631;SDS011;65526;48.578;-4.520;2023-07-31T09:54:42;12.50;;;4.13;;
76631;SDS011;65526;48.578;-4.520;2023-07-31T09:57:08;11.25;;;3.58;;
76631;SDS011;65526;48.578;-4.520;2023-07-31T09:59:36;9.63;;;3.30;;
76631;SDS011;65526;48.578;-4.520;2023-07-31T10:02:02;9.98;;;3.40;;
76631;SDS011;65526;48.578;-4.520;2023-07-31T10:04:30;8.13;;;3.47;;
76631;SDS011;65526;48.578;-4.520;2023-07-31T10:06:56;4.45;;;2.40;;
76631;SDS011;65526;48.578;-4.520;2023-07-31T10:09:25;6.55;;;2.50;;
76631;SDS011;65526;48.578;-4.520;2023-07-31T10:12:00;5.97;;;2.20;;
76631;SDS011;65526;48.578;-4.520;2023-07-31T10:14:31;6.88;;;2.47;;
76631;SDS011;65526;48.578;-4.520;2023-07-31T10:16:58;6.57;;;2.95;;
76631;SDS011;65526;48.578;-4.520;2023-07-31T10:19:25;13.20;;;3.22;;
76631;SDS011;65526;48.578;-4.520;2023-07-31T10:21:53;9.93;;;3.55;;
76631;SDS011;65526;48.578;-4.520;2023-07-31T10:24:22;9.52;;;3.83;;
76631;SDS011;65526;48.578;-4.520;2023-07-31T10:26:50;9.40;;;4.13;;
76631;SDS011;65526;48.578;-4.520;2023-07-31T10:29:19;10.07;;;4.32;;
76631;SDS011;65526;48.578;-4.520;2023-07-31T10:31:48;11.00;;;5.07;;
76631;SDS011;65526;48.578;-4.520;2023-07-31T10:34:14;11.32;;;4.63;;
76631;SDS011;65526;48.578;-4.520;2023-07-31T10:36:42;8.85;;;3.97;;
76631;SDS011;65526;48.578;-4.520;2023-07-31T10:39:55;13.23;;;4.72;;
76631;SDS011;65526;48.578;-4.520;2023-07-31T10:42:11;11.32;;;4.57;;
76631;SDS011;65526;48.578;-4.520;2023-07-31T10:44:43;7.22;;;3.88;;
76631;SDS011;65526;48.578;-4.520;2023-07-31T10:47:14;9.95;;;4.38;;
76631;SDS011;65526;48.578;-4.520;2023-07-31T10:49:44;13.57;;;4.78;;
76631;SDS011;65526;48.578;-4.520;2023-07-31T10:52:12;11.50;;;4.25;;
76631;SDS011;65526;48.578;-4.520;2023-07-31T10:54:39;10.70;;;3.85;;
76631;SDS011;65526;48.578;-4.520;2023-07-31T10:57:19;9.95;;;3.22;;
76631;SDS011;65526;48.578;-4.520;2023-07-31T10:59:47;8.77;;;3.13;;
76631;SDS011;65526;48.578;-4.520;2023-07-31T11:02:24;8.07;;;3.78;;
76631;SDS011;65526;48.578;-4.520;2023-07-31T11:05:05;10.65;;;4.00;;
76631;SDS011;65526;48.578;-4.520;2023-07-31T11:07:46;10.32;;;4.10;;
76631;SDS011;65526;48.578;-4.520;2023-07-31T11:10:16;10.77;;;3.97;;
76631;SDS011;65526;48.578;-4.520;2023-07-31T11:12:44;9.73;;;3.80;;
76631;SDS011;65526;48.578;-4.520;2023-07-31T11:17:39;10.88;;;3.40;;
76631;SDS011;65526;48.578;-4.520;2023-07-31T11:20:06;6.97;;;3.38;;
76631;SDS011;65526;48.578;-4.520;2023-07-31T11:22:36;8.00;;;3.08;;
76631;SDS011;65526;48.578;-4.520;2023-07-31T11:25:03;5.53;;;2.67;;
76631;SDS011;65526;48.578;-4.520;2023-07-31T11:27:30;6.57;;;2.92;;
76631;SDS011;65526;48.578;-4.520;2023-07-31T11:30:00;4.28;;;2.50;;
76631;SDS011;65526;48.578;-4.520;2023-07-31T11:32:28;5.18;;;2.42;;
76631;SDS011;65526;48.578;-4.520;2023-07-31T11:34:54;3.83;;;2.17;;
76631;SDS011;65526;48.578;-4.520;2023-07-31T11:37:22;2.63;;;1.75;;
76631;SDS011;65526;48.578;-4.520;2023-07-31T11:40:01;3.28;;;1.70;;
76631;SDS011;65526;48.578;-4.520;2023-07-31T11:42:29;2.65;;;1.42;;
76631;SDS011;65526;48.578;-4.520;2023-07-31T11:44:55;6.47;;;1.75;;
76631;SDS011;65526;48.578;-4.520;2023-07-31T11:47:22;2.10;;;1.40;;
76631;SDS011;65526;48.578;-4.520;2023-07-31T11:49:51;4.38;;;1.25;;
76631;SDS011;65526;48.578;-4.520;2023-07-31T11:52:18;3.90;;;1.30;;
76631;SDS011;65526;48.578;-4.520;2023-07-31T11:54:46;4.00;;;1.70;;
76631;SDS011;65526;48.578;-4.520;2023-07-31T11:57:12;3.47;;;1.85;;
76631;SDS011;65526;48.578;-4.520;2023-07-31T11:59:39;1.58;;;1.02;;
76631;SDS011;65526;48.578;-4.520;2023-07-31T12:02:07;2.08;;;1.10;;
76631;SDS011;65526;48.578;-4.520;2023-07-31T12:04:34;1.60;;;1.35;;
76631;SDS011;65526;48.578;-4.520;2023-07-31T12:07:01;3.47;;;1.35;;
76631;SDS011;65526;48.578;-4.520;2023-07-31T12:09:28;0.80;;;0.80;;
76631;SDS011;65526;48.578;-4.520;2023-07-31T12:11:54;1.45;;;0.80;;
76631;SDS011;65526;48.578;-4.520;2023-07-31T12:14:22;2.40;;;0.80;;
76631;SDS011;65526;48.578;-4.520;2023-07-31T12:16:54;0.50;;;0.50;;
76631;SDS011;65526;48.578;-4.520;2023-07-31T12:19:22;1.83;;;0.60;;
76631;SDS011;65526;48.578;-4.520;2023-07-31T12:21:49;2.22;;;0.60;;
76631;SDS011;65526;48.578;-4.520;2023-07-31T12:24:17;2.65;;;0.65;;
76631;SDS011;65526;48.578;-4.520;2023-07-31T12:26:48;1.75;;;0.50;;
76631;SDS011;65526;48.578;-4.520;2023-07-31T12:29:14;2.13;;;0.65;;
76631;SDS011;65526;48.578;-4.520;2023-07-31T12:31:41;5.18;;;1.13;;
76631;SDS011;65526;48.578;-4.520;2023-07-31T12:34:17;3.28;;;1.00;;
76631;SDS011;65526;48.578;-4.520;2023-07-31T12:36:46;3.63;;;1.02;;
76631;SDS011;65526;48.578;-4.520;2023-07-31T12:39:15;1.52;;;0.90;;
76631;SDS011;65526;48.578;-4.520;2023-07-31T12:41:41;2.20;;;1.20;;
76631;SDS011;65526;48.578;-4.520;2023-07-31T12:44:08;2.65;;;0.98;;
76631;SDS011;65526;48.578;-4.520;2023-07-31T12:46:35;1.73;;;1.05;;
76631;SDS011;65526;48.578;-4.520;2023-07-31T12:49:02;2.40;;;1.02;;
76631;SDS011;65526;48.578;-4.520;2023-07-31T12:51:28;1.85;;;0.98;;
76631;SDS011;65526;48.578;-4.520;2023-07-31T12:53:55;2.28;;;0.98;;
76631;SDS011;65526;48.578;-4.520;2023-07-31T12:56:21;5.07;;;1.30;;
76631;SDS011;65526;48.578;-4.520;2023-07-31T12:58:47;3.55;;;1.02;;
76631;SDS011;65526;48.578;-4.520;2023-07-31T13:01:14;1.88;;;1.30;;
76631;SDS011;65526;48.578;-4.520;2023-07-31T13:03:40;3.65;;;1.33;;
76631;SDS011;65526;48.578;-4.520;2023-07-31T13:06:07;4.38;;;1.80;;
76631;SDS011;65526;48.578;-4.520;2023-07-31T13:08:33;5.38;;;2.20;;
76631;SDS011;65526;48.578;-4.520;2023-07-31T13:11:00;6.60;;;2.35;;
76631;SDS011;65526;48.578;-4.520;2023-07-31T13:13:26;9.30;;;3.40;;
76631;SDS011;65526;48.578;-4.520;2023-07-31T13:15:52;11.15;;;3.90;;
76631;SDS011;65526;48.578;-4.520;2023-07-31T13:18:19;8.63;;;3.33;;
76631;SDS011;65526;48.578;-4.520;2023-07-31T13:20:45;6.57;;;2.83;;
76631;SDS011;65526;48.578;-4.520;2023-07-31T13:23:12;8.55;;;2.88;;
76631;SDS011;65526;48.578;-4.520;2023-07-31T13:25:38;9.35;;;2.75;;
76631;SDS011;65526;48.578;-4.520;2023-07-31T13:28:05;7.35;;;2.90;;
76631;SDS011;65526;48.578;-4.520;2023-07-31T13:30:31;12.73;;;3.75;;
76631;SDS011;65526;48.578;-4.520;2023-07-31T13:32:58;16.52;;;4.22;;
76631;SDS011;65526;48.578;-4.520;2023-07-31T13:35:24;15.27;;;4.10;;
76631;SDS011;65526;48.578;-4.520;2023-07-31T13:37:51;15.55;;;4.25;;
76631;SDS011;65526;48.578;-4.520;2023-07-31T13:40:17;27.70;;;18.58;;
76631;SDS011;65526;48.578;-4.520;2023-07-31T13:42:43;20.00;;;6.60;;
76631;SDS011;65526;48.578;-4.520;2023-07-31T13:45:10;20.77;;;7.75;;
76631;SDS011;65526;48.578;-4.520;2023-07-31T13:47:36;16.30;;;6.68;;
76631;SDS011;65526;48.578;-4.520;2023-07-31T13:50:03;7.50;;;3.30;;
76631;SDS011;65526;48.578;-4.520;2023-07-31T13:52:30;7.03;;;2.97;;
76631;SDS011;65526;48.578;-4.520;2023-07-31T13:54:56;14.25;;;4.55;;
76631;SDS011;65526;48.578;-4.520;2023-07-31T13:57:22;11.70;;;3.40;;
76631;SDS011;65526;48.578;-4.520;2023-07-31T13:59:49;17.55;;;4.35;;
76631;SDS011;65526;48.578;-4.520;2023-07-31T14:02:15;15.68;;;4.57;;
76631;SDS011;65526;48.578;-4.520;2023-07-31T14:04:42;17.15;;;4.88;;
76631;SDS011;65526;48.578;-4.520;2023-07-31T14:07:08;11.75;;;4.00;;
76631;SDS011;65526;48.578;-4.520;2023-07-31T14:09:35;18.25;;;4.82;;
76631;SDS011;65526;48.578;-4.520;2023-07-31T14:12:01;17.00;;;4.28;;
76631;SDS011;65526;48.578;-4.520;2023-07-31T14:14:27;16.08;;;4.45;;
76631;SDS011;65526;48.578;-4.520;2023-07-31T14:16:54;13.73;;;4.55;;
76631;SDS011;65526;48.578;-4.520;2023-07-31T14:19:20;17.60;;;4.90;;
76631;SDS011;65526;48.578;-4.520;2023-07-31T14:21:47;22.15;;;5.80;;
76631;SDS011;65526;48.578;-4.520;2023-07-31T14:24:13;24.80;;;5.03;;
76631;SDS011;65526;48.578;-4.520;2023-07-31T14:26:39;20.90;;;5.38;;
76631;SDS011;65526;48.578;-4.520;2023-07-31T14:29:06;22.58;;;4.75;;
76631;SDS011;65526;48.578;-4.520;2023-07-31T14:31:32;16.10;;;5.32;;
76631;SDS011;65526;48.578;-4.520;2023-07-31T14:33:59;17.88;;;4.28;;
76631;SDS011;65526;48.578;-4.520;2023-07-31T14:36:25;19.30;;;4.93;;
76631;SDS011;65526;48.578;-4.520;2023-07-31T14:38:51;14.68;;;3.65;;
76631;SDS011;65526;48.578;-4.520;2023-07-31T14:41:18;14.90;;;3.85;;
76631;SDS011;65526;48.578;-4.520;2023-07-31T14:43:45;15.82;;;3.53;;
76631;SDS011;65526;48.578;-4.520;2023-07-31T14:46:11;11.45;;;3.22;;